createdAt,value
2019-03-08T00:00:46.319Z,7.87
2019-03-08T00:03:15.395Z,7.78
2019-03-08T00:05:44.479Z,7.68
2019-03-08T00:08:13.582Z,7.71
2019-03-08T00:10:42.604Z,7.64
2019-03-08T00:13:11.655Z,7.55
2019-03-08T00:15:40.755Z,7.51
2019-03-08T00:18:09.812Z,7.49
2019-03-08T00:20:38.855Z,7.37
2019-03-08T00:23:10.107Z,7.42
2019-03-08T00:25:41.140Z,7.26
2019-03-08T00:28:10.482Z,7.25
2019-03-08T00:30:39.559Z,7.26
2019-03-08T00:33:08.644Z,7.13
2019-03-08T00:35:39.814Z,7.07
2019-03-08T00:38:11.686Z,7.00
2019-03-08T00:40:40.714Z,7.00
2019-03-08T00:43:09.811Z,6.95
2019-03-08T00:45:40.302Z,6.89
2019-03-08T00:48:09.337Z,6.78
2019-03-08T00:50:38.454Z,6.87
2019-03-08T00:53:09.037Z,6.93
2019-03-08T00:55:38.275Z,6.87
2019-03-08T00:58:09.328Z,6.85
2019-03-08T01:00:38.389Z,6.73
2019-03-08T01:03:07.445Z,6.89
2019-03-08T01:05:36.527Z,6.80
2019-03-08T01:08:05.525Z,6.64
2019-03-08T01:10:34.599Z,6.69
2019-03-08T01:13:03.636Z,6.61
2019-03-08T01:15:32.729Z,6.53
2019-03-08T01:18:01.739Z,6.51
2019-03-08T01:20:30.848Z,6.64
2019-03-08T01:22:59.921Z,6.49
2019-03-08T01:25:28.954Z,6.52
2019-03-08T01:28:02.921Z,6.51
2019-03-08T01:30:32.171Z,6.61
2019-03-08T01:33:01.165Z,6.55
2019-03-08T01:35:31.858Z,6.61
2019-03-08T01:38:00.879Z,6.89
2019-03-08T01:40:29.961Z,6.77
2019-03-08T01:42:59.040Z,6.84
2019-03-08T01:45:28.095Z,6.76
2019-03-08T01:47:57.134Z,6.91
2019-03-08T01:50:26.446Z,6.92
2019-03-08T01:52:55.482Z,6.88
2019-03-08T01:55:24.524Z,6.94
2019-03-08T01:57:53.558Z,7.00
2019-03-08T02:00:22.640Z,6.93
2019-03-08T02:02:51.704Z,6.91
2019-03-08T02:05:20.965Z,7.03
2019-03-08T02:07:50.084Z,7.00
2019-03-08T02:10:19.138Z,7.01
2019-03-08T02:12:48.150Z,7.02
2019-03-08T02:15:17.201Z,7.05
2019-03-08T02:17:46.226Z,6.89
2019-03-08T02:20:19.484Z,6.98
2019-03-08T02:22:48.564Z,7.08
2019-03-08T02:25:18.575Z,7.07
2019-03-08T02:27:47.689Z,7.07
2019-03-08T02:30:17.064Z,7.12
2019-03-08T02:32:46.323Z,6.94
2019-03-08T02:35:16.466Z,6.88
2019-03-08T02:37:45.531Z,7.03
2019-03-08T02:40:31.381Z,7.01
2019-03-08T02:43:00.694Z,6.99
2019-03-08T02:45:30.789Z,7.01
2019-03-08T02:47:59.824Z,7.03
2019-03-08T02:50:28.893Z,6.97
2019-03-08T02:52:57.991Z,6.89
2019-03-08T02:55:27.011Z,7.01
2019-03-08T02:57:56.062Z,6.96
2019-03-08T03:00:26.649Z,6.96
2019-03-08T03:02:55.714Z,6.87
2019-03-08T03:05:24.729Z,6.86
2019-03-08T03:07:53.767Z,6.89
2019-03-08T03:10:22.990Z,6.86
2019-03-08T03:12:52.142Z,6.77
2019-03-08T03:15:21.212Z,6.71
2019-03-08T03:17:50.306Z,6.71
2019-03-08T03:20:19.371Z,6.79
2019-03-08T03:22:48.430Z,6.69
2019-03-08T03:25:17.447Z,6.85
2019-03-08T03:27:46.495Z,6.75
2019-03-08T03:30:15.615Z,6.79
2019-03-08T03:32:44.698Z,6.79
2019-03-08T03:35:13.754Z,6.75
2019-03-08T03:37:42.771Z,6.73
2019-03-08T03:40:12.425Z,6.90
2019-03-08T03:42:41.438Z,6.78
2019-03-08T03:45:10.930Z,6.78
2019-03-08T03:47:40.008Z,6.79
2019-03-08T03:50:10.255Z,6.83
2019-03-08T03:52:39.566Z,6.74
2019-03-08T03:55:09.112Z,6.89
2019-03-08T03:57:38.143Z,6.86
2019-03-08T04:00:08.478Z,6.77
2019-03-08T04:02:37.548Z,6.73
2019-03-08T04:05:07.258Z,6.81
2019-03-08T04:07:36.265Z,6.76
2019-03-08T04:10:05.866Z,6.77
2019-03-08T04:12:35.073Z,6.74
2019-03-08T04:15:04.397Z,6.65
2019-03-08T04:17:33.400Z,6.74
2019-03-08T04:20:02.745Z,6.69
2019-03-08T04:22:31.787Z,6.71
2019-03-08T04:25:00.845Z,6.68
2019-03-08T04:27:29.980Z,6.73
2019-03-08T04:29:59.032Z,6.63
2019-03-08T04:32:28.078Z,6.59
2019-03-08T04:34:57.350Z,6.64
2019-03-08T04:37:26.388Z,6.76
2019-03-08T04:39:55.474Z,6.68
2019-03-08T04:42:24.514Z,6.68
2019-03-08T04:44:53.609Z,6.66
2019-03-08T04:47:22.707Z,6.80
2019-03-08T04:49:51.827Z,6.65
2019-03-08T04:52:20.854Z,6.84
2019-03-08T04:54:50.880Z,6.64
2019-03-08T04:57:19.928Z,6.72
2019-03-08T04:59:49.148Z,6.62
2019-03-08T05:02:18.248Z,6.59
2019-03-08T05:04:47.342Z,6.66
2019-03-08T05:07:16.392Z,6.63
2019-03-08T05:09:45.450Z,6.69
2019-03-08T05:12:17.247Z,6.67
2019-03-08T05:14:46.282Z,6.61
2019-03-08T05:17:15.557Z,6.62
2019-03-08T05:19:44.622Z,6.57
2019-03-08T05:22:13.714Z,6.68
2019-03-08T05:24:42.726Z,6.59
2019-03-08T05:27:13.631Z,6.62
2019-03-08T05:29:42.694Z,6.78
2019-03-08T05:32:11.777Z,6.71
2019-03-08T05:34:40.818Z,6.66
2019-03-08T05:37:09.871Z,6.58
2019-03-08T05:39:38.870Z,6.59
2019-03-08T05:42:07.910Z,6.58
2019-03-08T05:44:36.965Z,6.55
2019-03-08T05:47:06.057Z,6.63
2019-03-08T05:49:35.161Z,6.63
2019-03-08T05:52:04.196Z,6.58
2019-03-08T05:54:33.209Z,6.60
2019-03-08T05:57:02.258Z,6.67
2019-03-08T05:59:31.275Z,6.61
2019-03-08T06:02:00.334Z,6.55
2019-03-08T06:04:29.422Z,6.57
2019-03-08T06:06:58.554Z,6.68
2019-03-08T06:09:27.577Z,6.68
2019-03-08T06:11:56.684Z,6.68
2019-03-08T06:14:25.774Z,6.65
2019-03-08T06:16:54.806Z,6.58
2019-03-08T06:19:23.839Z,6.72
2019-03-08T06:21:52.969Z,6.71
2019-03-08T06:24:21.966Z,6.75
2019-03-08T06:26:51.095Z,6.68
2019-03-08T06:29:20.207Z,6.68
2019-03-08T06:31:49.303Z,6.67
2019-03-08T06:34:18.353Z,6.70
2019-03-08T06:36:48.963Z,6.75
2019-03-08T06:39:19.074Z,6.89
2019-03-08T06:41:48.126Z,6.93
2019-03-08T06:44:19.237Z,6.91
2019-03-08T06:46:48.328Z,6.98
2019-03-08T06:49:17.405Z,6.91
2019-03-08T06:51:46.431Z,7.10
2019-03-08T06:54:15.494Z,7.12
2019-03-08T06:56:44.572Z,7.20
2019-03-08T06:59:36.554Z,7.22
2019-03-08T07:02:05.647Z,7.08
2019-03-08T07:04:36.667Z,7.20
2019-03-08T07:07:05.727Z,7.17
2019-03-08T07:09:35.174Z,7.37
2019-03-08T07:12:06.113Z,7.22
2019-03-08T07:14:35.185Z,7.27
2019-03-08T07:17:04.275Z,7.11
2019-03-08T07:19:40.756Z,6.35
2019-03-08T07:22:10.744Z,7.12
2019-03-08T07:25:06.148Z,7.11
2019-03-08T07:28:00.267Z,7.07
2019-03-08T07:30:45.226Z,7.22
2019-03-08T07:33:32.180Z,7.27
2019-03-08T07:36:35.535Z,7.32
2019-03-08T07:39:22.371Z,7.33
2019-03-08T07:42:04.756Z,7.42
2019-03-08T07:44:43.382Z,7.45
2019-03-08T07:47:34.289Z,7.31
2019-03-08T07:50:34.677Z,7.26
2019-03-08T07:53:10.745Z,7.35
2019-03-08T07:55:52.493Z,7.46
2019-03-08T07:58:55.779Z,7.46
2019-03-08T08:01:30.302Z,7.42
2019-03-08T08:04:18.335Z,7.40
2019-03-08T08:06:53.752Z,7.48
2019-03-08T08:09:38.639Z,7.49
2019-03-08T08:12:29.492Z,7.59
2019-03-08T08:15:04.639Z,7.58
2019-03-08T08:17:56.474Z,7.56
2019-03-08T08:20:50.882Z,7.61
2019-03-08T08:23:34.072Z,7.49
2019-03-08T08:26:03.003Z,7.53
2019-03-08T08:28:55.912Z,7.67
2019-03-08T08:31:59.399Z,7.76
2019-03-08T08:34:56.542Z,7.87
2019-03-08T08:37:41.775Z,8.28
2019-03-08T08:40:18.364Z,8.10
2019-03-08T08:43:12.624Z,7.95
2019-03-08T08:46:05.091Z,7.81
2019-03-08T08:48:53.092Z,7.69
2019-03-08T08:51:39.847Z,7.28
2019-03-08T08:54:18.836Z,7.32
2019-03-08T08:57:09.897Z,7.39
2019-03-08T08:59:47.163Z,7.35
2019-03-08T09:02:37.890Z,7.25
2019-03-08T09:05:25.639Z,7.22
2019-03-08T09:08:20.125Z,7.32
2019-03-08T09:10:55.646Z,7.28
2019-03-08T09:13:49.766Z,7.60
2019-03-08T09:16:36.631Z,7.80
2019-03-08T09:19:15.660Z,7.64
2019-03-08T09:22:00.758Z,7.79
2019-03-08T09:24:35.842Z,7.97
2019-03-08T09:27:30.170Z,7.68
2019-03-08T09:30:30.328Z,7.57
2019-03-08T09:33:07.429Z,7.89
2019-03-08T09:35:57.049Z,7.81
2019-03-08T09:38:43.635Z,7.86
2019-03-08T09:41:29.827Z,7.70
2019-03-08T09:44:17.796Z,7.61
2019-03-08T09:46:54.747Z,7.44
2019-03-08T09:49:45.720Z,7.42
2019-03-08T09:52:19.460Z,7.19
2019-03-08T09:54:54.254Z,7.27
2019-03-08T09:57:57.290Z,7.20
2019-03-08T10:00:57.014Z,7.12
2019-03-08T10:03:47.067Z,6.99
2019-03-08T10:06:35.126Z,7.03
2019-03-08T10:09:09.719Z,7.09
2019-03-08T10:11:52.386Z,7.08
2019-03-08T10:14:36.668Z,7.03
2019-03-08T10:17:43.050Z,7.11
2019-03-08T10:20:32.675Z,7.07
2019-03-08T10:23:19.615Z,6.93
2019-03-08T10:26:00.575Z,7.01
2019-03-08T10:28:39.572Z,7.11
2019-03-08T10:31:30.806Z,7.09
2019-03-08T10:34:25.157Z,7.09
2019-03-08T10:37:18.029Z,7.06
2019-03-08T10:40:10.045Z,7.11
2019-03-08T10:43:00.787Z,7.03
2019-03-08T10:45:47.993Z,7.16
2019-03-08T10:48:29.603Z,7.07
2019-03-08T10:51:07.604Z,6.97
2019-03-08T10:53:41.613Z,7.44
2019-03-08T10:56:25.791Z,7.48
2019-03-08T10:59:11.763Z,7.23
2019-03-08T11:02:02.796Z,7.46
2019-03-08T11:04:40.065Z,7.69
2019-03-08T11:07:27.269Z,7.89
2019-03-08T11:10:21.875Z,8.35
2019-03-08T11:13:05.190Z,8.43
2019-03-08T11:15:51.852Z,8.52
2019-03-08T11:18:45.701Z,8.56
2019-03-08T11:21:49.281Z,9.04
2019-03-08T11:24:30.841Z,8.67
2019-03-08T11:27:25.779Z,9.02
2019-03-08T11:30:13.763Z,9.56
2019-03-08T11:33:13.900Z,9.25
2019-03-08T11:36:07.219Z,9.27
2019-03-08T11:38:57.682Z,9.17
2019-03-08T11:41:48.828Z,8.74
2019-03-08T11:44:27.154Z,8.48
2019-03-08T11:47:14.025Z,8.21
2019-03-08T11:50:08.075Z,8.21
2019-03-08T11:52:46.799Z,8.20
2019-03-08T11:55:29.919Z,8.27
2019-03-08T11:58:20.698Z,8.31
2019-03-08T12:01:02.956Z,8.50
2019-03-08T12:03:57.316Z,8.67
2019-03-08T12:06:34.829Z,8.62
2019-03-08T12:09:23.019Z,8.69
2019-03-08T12:12:29.065Z,9.01
2019-03-08T12:15:15.964Z,9.10
2019-03-08T12:17:58.354Z,9.24
2019-03-08T12:20:43.146Z,9.39
2019-03-08T12:23:31.004Z,10.07
2019-03-08T12:26:29.562Z,10.51
2019-03-08T12:29:20.367Z,10.37
2019-03-08T12:32:14.442Z,9.90
2019-03-08T12:35:08.582Z,9.62
2019-03-08T12:38:05.875Z,9.56
2019-03-08T12:40:52.641Z,9.23
2019-03-08T12:43:38.475Z,8.56
2019-03-08T12:46:14.649Z,7.98
2019-03-08T12:48:52.676Z,8.02
2019-03-08T12:51:32.370Z,8.03
2019-03-08T12:54:26.570Z,8.04
2019-03-08T12:57:13.483Z,8.11
2019-03-08T12:59:50.227Z,8.18
2019-03-08T13:02:41.213Z,8.21
2019-03-08T13:05:29.250Z,8.47
2019-03-08T13:08:35.391Z,8.52
2019-03-08T13:11:04.508Z,9.26
2019-03-08T13:13:33.542Z,9.59
2019-03-08T13:16:02.619Z,9.97
2019-03-08T13:18:31.649Z,9.74
2019-03-08T13:21:00.736Z,9.94
2019-03-08T13:23:29.776Z,9.60
2019-03-08T13:25:58.821Z,9.76
2019-03-08T13:28:27.831Z,9.54
2019-03-08T13:30:56.920Z,9.18
2019-03-08T13:33:25.980Z,9.65
2019-03-08T13:35:55.041Z,9.23
2019-03-08T13:38:24.120Z,9.23
2019-03-08T13:40:53.149Z,8.95
2019-03-08T13:43:22.232Z,8.99
2019-03-08T13:45:51.353Z,9.03
2019-03-08T13:48:20.384Z,9.17
2019-03-08T13:50:49.450Z,9.07
2019-03-08T13:53:18.539Z,9.07
2019-03-08T13:55:47.591Z,8.93
2019-03-08T13:58:16.622Z,9.11
2019-03-08T14:00:47.628Z,9.16
2019-03-08T14:03:18.750Z,8.91
2019-03-08T14:05:47.935Z,9.10
2019-03-08T14:08:17.065Z,8.76
2019-03-08T14:10:46.184Z,8.66
2019-03-08T14:13:15.201Z,8.33
2019-03-08T14:15:44.272Z,8.24
2019-03-08T14:18:14.947Z,8.15
2019-03-08T14:20:44.007Z,8.22
2019-03-08T14:23:13.114Z,8.17
2019-03-08T14:25:42.177Z,8.13
2019-03-08T14:28:11.543Z,8.20
2019-03-08T14:30:47.271Z,8.38
2019-03-08T14:33:16.361Z,8.29
2019-03-08T14:35:45.434Z,8.31
2019-03-08T14:38:15.776Z,8.74
2019-03-08T14:40:59.719Z,8.72
2019-03-08T14:43:35.336Z,8.83
2019-03-08T14:46:21.020Z,8.90
2019-03-08T14:48:49.852Z,8.84
2019-03-08T14:51:18.923Z,9.11
2019-03-08T14:53:47.952Z,9.22
2019-03-08T14:56:18.531Z,9.54
2019-03-08T14:58:47.621Z,9.50
2019-03-08T15:01:16.755Z,9.58
2019-03-08T15:03:45.862Z,9.43
2019-03-08T15:06:14.965Z,9.46
2019-03-08T15:08:44.005Z,9.60
2019-03-08T15:11:13.098Z,9.47
2019-03-08T15:13:42.449Z,9.37
2019-03-08T15:16:12.542Z,9.55
2019-03-08T15:18:41.624Z,9.55
2019-03-08T15:21:10.682Z,9.59
2019-03-08T15:23:39.788Z,9.71
2019-03-08T15:26:08.882Z,9.71
2019-03-08T15:28:38.034Z,9.88
2019-03-08T15:31:07.024Z,9.85
2019-03-08T15:33:37.425Z,9.99
2019-03-08T15:36:06.490Z,10.04
2019-03-08T15:38:35.945Z,10.17
2019-03-08T15:41:05.006Z,10.09
2019-03-08T15:43:36.191Z,10.12
2019-03-08T15:46:05.318Z,10.36
2019-03-08T15:48:34.497Z,10.28
2019-03-08T15:51:04.492Z,10.30
2019-03-08T15:53:44.896Z,10.26
2019-03-08T15:56:12.921Z,10.15
2019-03-08T15:58:46.307Z,10.19
2019-03-08T16:01:19.640Z,10.03
2019-03-08T16:04:45.938Z,10.02
2019-03-08T16:07:27.077Z,10.01
2019-03-08T16:10:02.059Z,9.94
2019-03-08T16:12:33.438Z,9.90
2019-03-08T16:15:04.858Z,9.92
2019-03-08T16:17:33.966Z,9.84
2019-03-08T16:20:03.946Z,9.85
2019-03-08T16:22:35.451Z,9.77
2019-03-08T16:25:06.566Z,9.78
2019-03-08T16:27:35.346Z,9.65
2019-03-08T16:30:09.713Z,9.48
2019-03-08T16:32:56.494Z,9.36
2019-03-08T16:35:29.695Z,9.28
2019-03-08T16:38:32.873Z,9.34
2019-03-08T16:41:21.062Z,9.35
2019-03-08T16:44:12.720Z,9.14
2019-03-08T16:47:12.069Z,9.20
2019-03-08T16:50:01.385Z,9.24
2019-03-08T16:52:47.787Z,9.13
2019-03-08T16:55:32.696Z,9.12
2019-03-08T16:58:14.594Z,9.11
2019-03-08T17:00:53.809Z,9.06
2019-03-08T17:03:45.310Z,9.12
2019-03-08T17:06:44.921Z,8.98
2019-03-08T17:09:28.117Z,8.87
2019-03-08T17:12:22.187Z,8.79
2019-03-08T17:15:03.364Z,8.88
2019-03-08T17:17:41.941Z,8.74
2019-03-08T17:20:16.030Z,8.77
2019-03-08T17:22:53.878Z,8.71
2019-03-08T17:25:35.399Z,8.58
2019-03-08T17:28:24.108Z,8.60
2019-03-08T17:31:00.527Z,8.54
2019-03-08T17:33:35.307Z,8.47
2019-03-08T17:36:12.019Z,8.51
2019-03-08T17:38:50.084Z,8.36
2019-03-08T17:41:36.992Z,8.33
2019-03-08T17:44:22.929Z,8.31
2019-03-08T17:47:09.794Z,8.24
2019-03-08T17:50:08.124Z,8.10
2019-03-08T17:53:06.181Z,8.12
2019-03-08T17:55:54.317Z,8.01
2019-03-08T17:58:47.969Z,7.89
2019-03-08T18:01:51.483Z,8.05
2019-03-08T18:04:33.356Z,7.96
2019-03-08T18:07:25.594Z,7.81
2019-03-08T18:10:13.670Z,7.89
2019-03-08T18:12:59.308Z,7.72
2019-03-08T18:15:46.314Z,7.59
2019-03-08T18:18:49.745Z,7.49
2019-03-08T18:21:29.131Z,7.31
2019-03-08T18:24:23.785Z,7.03
2019-03-08T18:27:21.481Z,7.07
2019-03-08T18:30:03.109Z,7.06
2019-03-08T18:32:52.626Z,7.20
2019-03-08T18:35:53.023Z,7.14
2019-03-08T18:38:41.178Z,7.21
2019-03-08T18:41:24.147Z,7.15
2019-03-08T18:44:03.857Z,7.18
2019-03-08T18:46:47.134Z,7.15
2019-03-08T18:49:38.406Z,6.92
2019-03-08T18:52:21.698Z,6.87
2019-03-08T18:55:18.856Z,6.94
2019-03-08T18:57:57.444Z,7.14
2019-03-08T19:00:44.280Z,7.07
2019-03-08T19:03:38.061Z,7.10
2019-03-08T19:06:19.251Z,7.22
2019-03-08T19:09:07.296Z,7.24
2019-03-08T19:12:01.831Z,7.25
2019-03-08T19:14:49.886Z,7.26
2019-03-08T19:17:46.190Z,7.40
2019-03-08T19:20:44.020Z,7.60
2019-03-08T19:23:21.298Z,7.62
2019-03-08T19:26:14.414Z,7.74
2019-03-08T19:28:54.576Z,7.72
2019-03-08T19:31:47.444Z,7.66
2019-03-08T19:34:53.539Z,7.83
2019-03-08T19:37:41.131Z,7.82
2019-03-08T19:40:31.935Z,7.85
2019-03-08T19:43:24.198Z,7.96
2019-03-08T19:46:13.311Z,8.05
2019-03-08T19:49:09.012Z,8.13
2019-03-08T19:51:57.350Z,8.09
2019-03-08T19:54:45.326Z,8.22
2019-03-08T19:57:24.571Z,8.15
2019-03-08T20:00:12.644Z,8.29
2019-03-08T20:02:49.875Z,8.21
2019-03-08T20:05:31.348Z,8.22
2019-03-08T20:08:09.426Z,8.20
2019-03-08T20:10:56.186Z,8.26
2019-03-08T20:13:53.325Z,8.23
2019-03-08T20:16:44.480Z,8.30
2019-03-08T20:19:21.091Z,8.11
2019-03-08T20:22:03.018Z,8.18
2019-03-08T20:25:06.355Z,7.88
2019-03-08T20:28:00.551Z,8.15
2019-03-08T20:31:07.635Z,8.25
2019-03-08T20:34:01.430Z,8.05
2019-03-08T20:36:49.534Z,7.98
2019-03-08T20:39:32.939Z,7.97
2019-03-08T20:42:10.262Z,7.90
2019-03-08T20:44:52.994Z,7.93
2019-03-08T20:47:25.488Z,7.91
2019-03-08T20:49:56.738Z,7.82
2019-03-08T20:52:25.785Z,7.72
2019-03-08T20:54:56.003Z,7.74
2019-03-08T20:57:25.326Z,7.70
2019-03-08T20:59:54.440Z,7.70
2019-03-08T21:02:25.676Z,7.63
2019-03-08T21:04:54.830Z,7.62
2019-03-08T21:07:23.979Z,7.61
2019-03-08T21:09:53.044Z,7.57
2019-03-08T21:12:22.158Z,7.83
2019-03-08T21:14:51.244Z,7.64
2019-03-08T21:17:20.484Z,7.51
2019-03-08T21:19:49.532Z,7.58
2019-03-08T21:22:18.652Z,7.51
2019-03-08T21:24:47.684Z,7.38
2019-03-08T21:27:20.375Z,7.51
2019-03-08T21:29:49.820Z,7.43
2019-03-08T21:32:18.950Z,7.33
2019-03-08T21:34:49.258Z,7.26
2019-03-08T21:37:18.310Z,7.30
2019-03-08T21:39:47.436Z,7.18
2019-03-08T21:42:16.767Z,7.23
2019-03-08T21:44:45.932Z,7.32
2019-03-08T21:47:16.769Z,7.40
2019-03-08T21:49:45.879Z,7.45
2019-03-08T21:52:14.952Z,7.45
2019-03-08T21:54:44.312Z,7.46
2019-03-08T21:57:13.352Z,7.45
2019-03-08T21:59:42.430Z,7.46
2019-03-08T22:02:11.473Z,7.51
2019-03-08T22:04:44.018Z,7.45
2019-03-08T22:07:13.488Z,7.67
2019-03-08T22:09:56.701Z,7.60
2019-03-08T22:12:25.763Z,7.64
2019-03-08T22:14:56.000Z,7.65
2019-03-08T22:17:25.183Z,7.70
2019-03-08T22:19:54.320Z,7.69
2019-03-08T22:22:23.343Z,7.66
2019-03-08T22:24:52.435Z,7.64
2019-03-08T22:27:22.591Z,7.65
2019-03-08T22:29:51.634Z,7.64
2019-03-08T22:32:20.709Z,7.73
2019-03-08T22:34:49.836Z,7.51
2019-03-08T22:37:18.891Z,6.74
2019-03-08T22:39:47.927Z,7.64
2019-03-08T22:42:19.243Z,7.74
2019-03-08T22:44:48.394Z,7.82
2019-03-08T22:47:17.469Z,7.59
2019-03-08T22:49:46.495Z,7.53
2019-03-08T22:52:15.558Z,7.57
2019-03-08T22:54:44.572Z,7.56
2019-03-08T22:57:13.841Z,7.66
2019-03-08T22:59:42.919Z,7.66
2019-03-08T23:02:13.125Z,7.62
2019-03-08T23:04:42.961Z,7.70
2019-03-08T23:07:12.107Z,7.72
2019-03-08T23:09:41.217Z,7.68
2019-03-08T23:12:10.739Z,7.73
2019-03-08T23:14:39.864Z,7.68
2019-03-08T23:17:08.973Z,7.91
2019-03-08T23:19:37.963Z,7.65
2019-03-08T23:22:07.266Z,7.72
2019-03-08T23:24:36.280Z,7.62
2019-03-08T23:27:12.458Z,7.62
2019-03-08T23:30:04.861Z,7.67
2019-03-08T23:32:39.112Z,7.73
2019-03-08T23:35:08.270Z,7.71
2019-03-08T23:37:37.316Z,7.63
2019-03-08T23:40:07.701Z,7.65
2019-03-08T23:42:36.824Z,7.61
2019-03-08T23:45:06.193Z,7.64
2019-03-08T23:47:38.340Z,7.69
2019-03-08T23:50:08.779Z,7.75
2019-03-08T23:52:37.856Z,7.71
2019-03-08T23:55:07.443Z,7.82
2019-03-08T23:57:36.589Z,7.76
